Time;durP1;ratioP1;P1;durP2;ratioP2;P2;SDS_P1;SDS_P2;PMS_P1;PMS_P2;Temp;Humidity;BMP_temperature;BMP_pressure;BME280_temperature;BME280_humidity;BME280_pressure;Samples;Min_cycle;Max_cycle;Signal;HPM_P1;HPM_P2
2023/05/20 00:00:52;;;;;;;10.32;7.12;;;;;;;18.20;66.06;99542.25;4324796;33;33871;-93
2023/05/20 00:03:20;;;;;;;9.98;7.22;;;;;;;18.35;65.70;99538.56;4302421;33;33835;-91
2023/05/20 00:05:48;;;;;;;14.38;7.57;;;;;;;18.10;66.36;99554.59;4314347;33;33429;-93
2023/05/20 00:08:17;;;;;;;11.02;6.93;;;;;;;18.11;66.40;99545.00;4311636;33;33189;-92
2023/05/20 00:10:45;;;;;;;12.45;6.80;;;;;;;18.11;66.50;99547.62;4302842;33;33946;-93
2023/05/20 00:13:12;;;;;;;9.25;6.70;;;;;;;18.14;66.17;99547.56;4291846;33;34254;-92
2023/05/20 00:15:40;;;;;;;8.77;6.60;;;;;;;17.88;67.29;99555.72;4316065;33;34252;-93
2023/05/20 00:18:07;;;;;;;9.30;6.68;;;;;;;18.26;65.81;99557.94;4316370;33;33739;-93
2023/05/20 00:20:35;;;;;;;10.45;6.93;;;;;;;18.56;64.77;99548.81;4302837;33;32643;-92
2023/05/20 00:23:02;;;;;;;12.57;7.22;;;;;;;18.25;65.88;99545.69;4315479;33;34007;-92
2023/05/20 00:25:31;;;;;;;9.77;7.60;;;;;;;17.64;68.50;99559.44;4316685;33;33618;-94
2023/05/20 00:27:59;;;;;;;10.13;7.65;;;;;;;17.96;67.58;99546.91;4316362;33;34926;-90
2023/05/20 00:30:26;;;;;;;14.43;7.95;;;;;;;17.92;67.95;99536.47;4327486;33;33708;-93
2023/05/20 00:32:54;;;;;;;12.85;8.48;;;;;;;17.92;67.98;99542.59;4303060;33;33420;-93
2023/05/20 00:35:22;;;;;;;12.10;8.23;;;;;;;18.15;67.18;99538.84;4278712;33;33910;-93
2023/05/20 00:37:49;;;;;;;12.07;7.97;;;;;;;18.05;67.69;99540.69;4290688;33;33252;-93
2023/05/20 00:40:17;;;;;;;11.25;8.40;;;;;;;18.01;67.78;99538.97;4291423;33;33502;-94
2023/05/20 00:42:45;;;;;;;12.93;7.95;;;;;;;17.85;68.25;99548.78;4291735;33;34888;-92
2023/05/20 00:45:12;;;;;;;15.88;8.95;;;;;;;18.07;67.68;99544.16;4315797;33;33207;-91
2023/05/20 00:47:41;;;;;;;13.50;9.18;;;;;;;18.19;67.31;99548.41;4328014;33;34630;-91
2023/05/20 00:50:09;;;;;;;13.43;8.57;;;;;;;18.14;67.65;99550.19;4317959;33;34501;-94
2023/05/20 00:52:40;;;;;;;11.85;8.98;;;;;;;18.16;67.50;99545.81;4329830;33;34916;-93
2023/05/20 00:55:08;;;;;;;13.73;9.40;;;;;;;18.40;66.41;99544.63;4302253;33;33260;-93
2023/05/20 00:57:35;;;;;;;11.05;7.87;;;;;;;18.44;66.35;99547.19;4305465;33;34644;-92
2023/05/20 01:00:05;;;;;;;10.73;8.63;;;;;;;18.33;66.54;99541.19;4331180;33;33418;-91
2023/05/20 01:02:32;;;;;;;14.27;9.02;;;;;;;18.44;66.10;99541.06;4289458;33;32517;-93
2023/05/20 01:05:00;;;;;;;11.25;8.50;;;;;;;18.46;66.03;99544.56;4303179;33;33618;-93
2023/05/20 01:07:28;;;;;;;11.57;7.57;;;;;;;18.45;66.07;99542.81;4302181;33;34925;-93
2023/05/20 01:09:56;;;;;;;10.82;7.62;;;;;;;18.64;65.42;99546.06;4304430;33;36024;-91
2023/05/20 01:12:28;;;;;;;12.27;7.18;;;;;;;18.55;65.43;99546.19;4302991;33;33723;-94
2023/05/20 01:15:08;;;;;;;11.23;7.32;;;;;;;18.50;65.47;99550.63;4303461;33;33394;-92
2023/05/20 01:17:39;;;;;;;9.63;7.40;;;;;;;18.61;65.02;99557.47;4300270;33;34024;-95
2023/05/20 01:20:09;;;;;;;12.35;7.70;;;;;;;18.45;65.51;99555.97;4286528;33;34064;-95
2023/05/20 01:22:38;;;;;;;10.85;7.25;;;;;;;18.48;65.32;99559.37;4303392;33;33416;-93
2023/05/20 01:25:05;;;;;;;12.55;6.78;;;;;;;18.28;66.32;99564.03;4305256;33;33301;-93
2023/05/20 01:27:34;;;;;;;14.25;7.65;;;;;;;18.46;65.45;99560.31;4319560;33;35054;-93
2023/05/20 01:30:02;;;;;;;10.68;7.75;;;;;;;18.38;65.75;99555.16;4291325;33;34343;-94
2023/05/20 01:32:39;;;;;;;11.52;6.97;;;;;;;18.29;66.10;99555.25;4298057;33;34695;-93
2023/05/20 01:35:08;;;;;;;10.60;7.60;;;;;;;18.41;65.80;99563.00;4305722;33;33618;-93
2023/05/20 01:37:39;;;;;;;12.20;7.12;;;;;;;18.32;65.93;99562.22;4304057;33;33506;-93
2023/05/20 01:40:08;;;;;;;12.02;7.82;;;;;;;18.32;65.95;99560.47;4303157;33;34931;-93
2023/05/20 01:42:36;;;;;;;12.18;7.62;;;;;;;18.23;66.26;99566.72;4302105;33;34104;-93
2023/05/20 01:45:04;;;;;;;10.45;7.90;;;;;;;18.17;66.65;99565.91;4314678;33;34313;-93
2023/05/20 01:47:32;;;;;;;13.75;7.45;;;;;;;18.26;66.38;99563.19;4316018;33;33528;-93
2023/05/20 01:50:00;;;;;;;11.70;7.95;;;;;;;18.27;66.41;99566.69;4316642;33;35045;-93
2023/05/20 01:52:27;;;;;;;12.57;7.65;;;;;;;18.23;66.66;99571.09;4314993;33;33923;-92
2023/05/20 01:54:56;;;;;;;13.05;7.68;;;;;;;18.24;66.70;99570.19;4314351;33;34315;-93
2023/05/20 01:57:24;;;;;;;11.35;7.80;;;;;;;18.27;66.35;99556.19;4311405;33;34607;-94
2023/05/20 01:59:52;;;;;;;11.70;8.13;;;;;;;18.16;66.86;99561.56;4321969;33;34494;-94
2023/05/20 02:02:21;;;;;;;15.07;8.45;;;;;;;18.27;66.71;99558.81;4290826;33;34003;-93
2023/05/20 02:04:50;;;;;;;13.70;8.15;;;;;;;18.18;66.94;99563.28;4302390;33;32690;-92
2023/05/20 02:07:18;;;;;;;12.65;8.30;;;;;;;18.10;67.21;99572.09;4291252;33;34873;-92
2023/05/20 02:09:46;;;;;;;13.77;7.70;;;;;;;18.13;67.13;99562.44;4302786;33;34524;-94
2023/05/20 02:12:17;;;;;;;12.82;8.30;;;;;;;18.09;67.39;99558.13;4301744;33;34822;-92
2023/05/20 02:14:46;;;;;;;12.10;8.23;;;;;;;18.05;67.39;99564.28;4322594;33;33243;-93
2023/05/20 02:17:16;;;;;;;11.45;8.63;;;;;;;18.00;67.74;99558.25;4294006;33;32506;-93
2023/05/20 02:19:44;;;;;;;12.60;8.18;;;;;;;18.16;67.01;99561.56;4305202;33;34933;-92
2023/05/20 02:22:13;;;;;;;15.02;8.30;;;;;;;18.15;67.10;99559.81;4305948;33;34095;-93
2023/05/20 02:24:43;;;;;;;12.15;8.45;;;;;;;18.00;67.60;99558.25;4300860;33;33381;-90
2023/05/20 02:27:10;;;;;;;11.32;8.48;;;;;;;17.79;68.59;99568.94;4317391;33;34730;-92
2023/05/20 02:29:38;;;;;;;13.48;8.02;;;;;;;17.86;67.85;99555.75;4315513;33;35794;-92
2023/05/20 02:32:06;;;;;;;14.73;8.60;;;;;;;17.95;67.67;99560.03;4316133;33;33850;-94
2023/05/20 02:34:33;;;;;;;12.90;7.75;;;;;;;18.10;67.11;99553.75;4324468;33;33154;-93
2023/05/20 02:37:01;;;;;;;12.25;8.55;;;;;;;17.87;67.82;99561.88;4320213;33;34715;-92
2023/05/20 02:39:29;;;;;;;16.95;9.20;;;;;;;17.55;68.67;99564.78;4331022;33;35587;-93
2023/05/20 02:41:56;;;;;;;14.00;8.75;;;;;;;17.51;68.83;99563.94;4306893;33;33886;-91
2023/05/20 02:44:25;;;;;;;14.93;8.02;;;;;;;17.87;66.98;99554.88;4301538;33;34723;-93
2023/05/20 02:46:54;;;;;;;12.32;9.00;;;;;;;18.08;66.38;99555.53;4313150;33;34019;-92
2023/05/20 02:49:23;;;;;;;13.07;9.15;;;;;;;17.82;66.91;99554.06;4301965;33;33739;-93
2023/05/20 02:51:51;;;;;;;11.38;8.25;;;;;;;18.00;66.11;99550.38;4302648;33;34847;-93
2023/05/20 02:54:18;;;;;;;10.25;8.68;;;;;;;17.88;66.27;99551.37;4288879;33;33381;-93
2023/05/20 02:56:46;;;;;;;11.52;8.23;;;;;;;17.96;65.75;99544.28;4301726;33;33403;-94
2023/05/20 02:59:14;;;;;;;14.73;8.57;;;;;;;17.89;65.93;99547.84;4316379;33;34195;-93
2023/05/20 03:01:42;;;;;;;9.73;7.57;;;;;;;17.83;66.01;99550.53;4299373;33;33835;-93
2023/05/20 03:04:10;;;;;;;11.57;7.47;;;;;;;17.86;65.95;99552.28;4302196;33;34264;-93
2023/05/20 03:06:43;;;;;;;15.23;8.25;;;;;;;17.99;65.44;99557.38;4330027;33;34716;-93
2023/05/20 03:09:10;;;;;;;12.30;8.10;;;;;;;18.02;65.20;99553.81;4290735;33;32933;-91
2023/05/20 03:11:38;;;;;;;9.30;6.95;;;;;;;17.94;65.10;99558.28;4301927;33;34479;-93
2023/05/20 03:14:06;;;;;;;11.93;8.05;;;;;;;17.70;65.35;99562.03;4309115;33;33251;-91
2023/05/20 03:16:34;;;;;;;13.15;8.00;;;;;;;17.78;65.48;99560.22;4330065;33;33789;-92
2023/05/20 03:19:02;;;;;;;14.20;8.07;;;;;;;17.63;65.94;99561.19;4330254;33;34137;-93
2023/05/20 03:21:29;;;;;;;12.27;8.30;;;;;;;17.33;66.87;99567.59;4314731;33;34701;-93
2023/05/20 03:23:57;;;;;;;11.23;7.50;;;;;;;17.64;65.58;99568.19;4314979;33;33732;-91
2023/05/20 03:26:24;;;;;;;14.32;8.27;;;;;;;17.78;65.37;99572.47;4303940;33;33126;-92
2023/05/20 03:28:52;;;;;;;13.35;8.40;;;;;;;17.46;66.36;99571.84;4321867;33;33840;-92
2023/05/20 03:31:20;;;;;;;12.20;8.20;;;;;;;17.32;67.03;99573.72;4299615;33;34528;-92
2023/05/20 03:33:49;;;;;;;10.77;7.93;;;;;;;17.43;66.71;99582.37;4315430;33;33375;-93
2023/05/20 03:36:16;;;;;;;10.63;7.82;;;;;;;17.36;66.60;99577.19;4313981;33;34612;-91
2023/05/20 03:38:44;;;;;;;13.43;8.82;;;;;;;17.03;68.39;99587.88;4314939;33;33427;-93
2023/05/20 03:41:12;;;;;;;14.20;8.57;;;;;;;16.75;69.30;99584.56;4316137;33;33847;-93
2023/05/20 03:43:40;;;;;;;9.57;7.75;;;;;;;16.64;69.47;99578.50;4322448;33;33405;-92
2023/05/20 03:46:07;;;;;;;11.07;8.10;;;;;;;16.37;70.43;99589.97;4299780;33;34495;-91
2023/05/20 03:48:35;;;;;;;13.68;8.43;;;;;;;16.64;69.48;99580.25;4316497;33;33821;-92
2023/05/20 03:51:03;;;;;;;12.25;8.25;;;;;;;16.79;69.08;99585.44;4304085;33;34684;-94
2023/05/20 03:53:32;;;;;;;12.60;8.40;;;;;;;16.74;68.91;99588.09;4302711;33;33477;-91
2023/05/20 03:56:00;;;;;;;13.15;8.57;;;;;;;16.82;68.65;99585.41;4316453;33;34239;-92
2023/05/20 03:58:30;;;;;;;14.50;8.50;;;;;;;16.85;68.77;99584.50;4300105;33;34506;-91
2023/05/20 04:00:57;;;;;;;13.82;7.80;;;;;;;17.00;67.85;99587.03;4291683;33;33765;-92
2023/05/20 04:03:27;;;;;;;12.70;7.90;;;;;;;16.97;68.02;99592.28;4301714;33;34987;-93
2023/05/20 04:05:55;;;;;;;14.30;7.90;;;;;;;17.03;68.30;99593.12;4315291;33;33485;-89
2023/05/20 04:08:24;;;;;;;12.88;7.80;;;;;;;17.18;67.18;99593.91;4316549;33;34545;-92
2023/05/20 04:10:56;;;;;;;9.50;7.57;;;;;;;17.11;67.37;99598.31;4316393;33;33791;-93
2023/05/20 04:13:26;;;;;;;9.65;7.37;;;;;;;17.32;66.64;99597.31;4314899;33;34365;-94
2023/05/20 04:15:54;;;;;;;12.32;7.60;;;;;;;17.53;65.64;99604.09;4315621;33;33996;-91
2023/05/20 04:18:21;;;;;;;12.95;8.38;;;;;;;17.51;65.46;99604.13;4292050;33;34902;-93
2023/05/20 04:20:54;;;;;;;11.15;7.62;;;;;;;17.37;65.93;99605.13;4303015;33;32926;-91
2023/05/20 04:23:22;;;;;;;10.95;6.85;;;;;;;17.67;65.44;99604.87;4303669;33;33629;-93
2023/05/20 04:25:50;;;;;;;11.40;7.82;;;;;;;17.95;63.98;99608.09;4302617;33;33430;-92
2023/05/20 04:28:17;;;;;;;11.27;7.82;;;;;;;18.01;63.25;99612.44;4317156;33;35338;-91
2023/05/20 04:30:45;;;;;;;11.27;7.45;;;;;;;17.93;63.37;99614.28;4316621;33;34647;-92
2023/05/20 04:33:13;;;;;;;10.63;7.50;;;;;;;17.80;64.21;99613.50;4318087;33;33432;-92
2023/05/20 04:35:43;;;;;;;12.13;6.53;;;;;;;17.97;63.49;99614.22;4307755;33;33248;-93
2023/05/20 04:38:10;;;;;;;12.15;6.82;;;;;;;18.05;63.07;99615.91;4316905;33;33898;-92
2023/05/20 04:40:38;;;;;;;11.07;6.45;;;;;;;18.46;62.22;99616.31;4302337;33;33880;-92
2023/05/20 04:43:06;;;;;;;8.85;6.93;;;;;;;18.96;60.23;99611.31;4315409;33;32846;-92
2023/05/20 04:45:35;;;;;;;9.93;7.07;;;;;;;18.63;60.20;99612.59;4316615;33;33919;-92
2023/05/20 04:48:04;;;;;;;13.02;7.45;;;;;;;18.56;61.00;99613.56;4292358;33;34111;-90
2023/05/20 04:50:36;;;;;;;11.27;6.85;;;;;;;18.46;60.53;99612.81;4303740;33;32752;-93
2023/05/20 04:53:07;;;;;;;10.95;6.00;;;;;;;17.98;61.97;99629.06;4301781;33;33693;-93
2023/05/20 04:55:36;;;;;;;11.18;7.12;;;;;;;18.16;61.69;99627.16;4299163;33;33990;-92
2023/05/20 04:58:04;;;;;;;10.90;7.90;;;;;;;17.81;62.71;99620.50;4301758;33;34029;-93
2023/05/20 05:00:32;;;;;;;12.10;6.25;;;;;;;18.24;62.08;99612.19;4289392;33;33381;-94
2023/05/20 05:03:00;;;;;;;11.98;6.20;;;;;;;18.36;60.98;99608.56;4314607;33;32481;-95
2023/05/20 05:05:27;;;;;;;9.32;6.30;;;;;;;18.25;61.32;99603.41;4288939;33;32439;-95
2023/05/20 05:07:55;;;;;;;9.82;6.40;;;;;;;18.46;60.94;99600.56;4297553;33;33719;-94
2023/05/20 05:10:24;;;;;;;11.50;7.00;;;;;;;18.24;61.33;99602.56;4302394;33;33744;-95
2023/05/20 05:12:51;;;;;;;9.23;6.72;;;;;;;18.33;61.53;99598.94;4298273;33;33650;-95
2023/05/20 05:15:19;;;;;;;11.57;7.28;;;;;;;18.70;60.51;99606.38;4302219;33;33847;-93
2023/05/20 05:17:47;;;;;;;13.52;8.10;;;;;;;18.38;60.52;99605.03;4315691;33;35115;-95
2023/05/20 05:20:14;;;;;;;8.73;6.47;;;;;;;18.68;59.86;99616.06;4291370;33;32820;-94
2023/05/20 05:22:43;;;;;;;10.95;6.43;;;;;;;19.23;59.96;99609.16;4290463;33;34131;-95
2023/05/20 05:25:11;;;;;;;9.20;6.57;;;;;;;19.65;57.67;99602.38;4290546;33;34028;-93
2023/05/20 05:27:39;;;;;;;8.85;6.45;;;;;;;19.52;56.88;99616.59;4315220;33;33714;-93
2023/05/20 05:30:07;;;;;;;11.40;7.05;;;;;;;19.23;58.75;99614.41;4301493;33;32911;-90
2023/05/20 05:32:35;;;;;;;12.65;6.65;;;;;;;19.28;57.71;99608.22;4304861;33;32820;-91
2023/05/20 05:35:03;;;;;;;10.93;7.47;;;;;;;19.63;56.44;99610.28;4325059;33;33829;-93
2023/05/20 05:37:34;;;;;;;12.43;7.10;;;;;;;19.54;57.73;99605.13;4288966;33;34208;-91
2023/05/20 05:40:02;;;;;;;14.10;6.40;;;;;;;19.31;57.29;99607.28;4316572;33;33807;-93
2023/05/20 05:42:30;;;;;;;12.77;6.32;;;;;;;19.54;57.60;99609.53;4316106;33;34097;-91
2023/05/20 05:44:58;;;;;;;10.13;6.40;;;;;;;19.51;56.72;99614.84;4316364;33;33657;-93
2023/05/20 05:47:31;;;;;;;12.77;7.18;;;;;;;19.53;57.09;99619.19;4298991;33;34907;-93
2023/05/20 05:49:59;;;;;;;12.02;6.60;;;;;;;19.47;56.96;99613.16;4303112;33;34291;-93
2023/05/20 05:52:32;;;;;;;11.52;6.47;;;;;;;19.76;56.03;99625.88;4302046;33;34495;-95
2023/05/20 05:55:01;;;;;;;13.43;6.62;;;;;;;19.66;56.79;99626.03;4300983;33;33447;-90
2023/05/20 05:57:29;;;;;;;11.10;7.03;;;;;;;20.15;56.03;99619.00;4315866;33;35078;-93
2023/05/20 05:59:57;;;;;;;11.60;7.03;;;;;;;20.27;54.73;99620.56;4315024;33;33840;-91
2023/05/20 06:02:26;;;;;;;10.02;6.90;;;;;;;20.20;55.04;99621.56;4307843;33;32997;-90
2023/05/20 06:04:54;;;;;;;12.30;6.75;;;;;;;20.25;54.67;99610.03;4312586;33;35003;-92
2023/05/20 06:07:22;;;;;;;11.52;7.15;;;;;;;20.25;56.10;99607.41;4317731;33;33715;-91
2023/05/20 06:09:50;;;;;;;12.95;7.40;;;;;;;19.88;54.65;99608.09;4329940;33;35039;-92
2023/05/20 06:12:19;;;;;;;14.52;7.65;;;;;;;20.06;55.78;99606.88;4302447;33;33751;-90
2023/05/20 06:14:46;;;;;;;11.18;7.47;;;;;;;19.78;55.11;99614.44;4316192;33;34808;-92
2023/05/20 06:17:14;;;;;;;9.85;6.87;;;;;;;19.59;55.57;99607.72;4318649;33;34132;-91
2023/05/20 06:19:42;;;;;;;11.40;6.28;;;;;;;19.83;55.46;99612.56;4309576;33;33430;-90
2023/05/20 06:22:09;;;;;;;9.10;6.37;;;;;;;20.46;54.85;99603.50;4302512;33;33110;-94
2023/05/20 06:24:37;;;;;;;8.77;6.70;;;;;;;20.77;53.92;99603.72;4315798;33;33514;-91
2023/05/20 06:27:05;;;;;;;11.25;6.97;;;;;;;21.26;53.76;99607.03;4302670;33;33659;-95
2023/05/20 06:29:33;;;;;;;14.40;7.28;;;;;;;21.33;52.01;99604.25;4316097;33;34270;-94
2023/05/20 06:32:01;;;;;;;19.33;7.68;;;;;;;21.26;52.01;99602.63;4316064;33;33633;-92
2023/05/20 06:34:29;;;;;;;11.77;6.97;;;;;;;21.50;51.64;99611.72;4302959;33;33555;-94
2023/05/20 06:36:57;;;;;;;14.05;6.50;;;;;;;21.62;51.30;99615.81;4288052;33;33817;-93
2023/05/20 06:39:25;;;;;;;10.18;6.05;;;;;;;21.62;50.14;99616.69;4314689;33;34256;-93
2023/05/20 06:41:53;;;;;;;11.40;6.37;;;;;;;21.72;50.15;99609.41;4316354;33;34179;-96
2023/05/20 06:44:25;;;;;;;10.35;6.25;;;;;;;21.78;50.81;99601.34;4314704;33;34605;-95
2023/05/20 06:46:53;;;;;;;10.68;7.12;;;;;;;22.31;50.20;99603.47;4300770;33;33969;-95
2023/05/20 06:49:21;;;;;;;12.68;6.60;;;;;;;22.43;48.44;99603.13;4289018;33;33913;-94
2023/05/20 06:51:49;;;;;;;11.63;6.78;;;;;;;22.33;49.12;99589.31;4315947;33;34420;-91
2023/05/20 06:54:17;;;;;;;12.13;7.55;;;;;;;22.38;49.35;99596.22;4314931;33;34105;-94
2023/05/20 06:56:45;;;;;;;10.05;6.85;;;;;;;21.85;48.97;99592.34;4315461;33;34241;-94
2023/05/20 06:59:13;;;;;;;9.25;6.37;;;;;;;22.66;49.66;99589.25;4312907;33;34105;-92
2023/05/20 07:01:42;;;;;;;13.18;6.57;;;;;;;22.91;47.50;99585.84;4290015;33;33627;-94
2023/05/20 07:04:09;;;;;;;11.77;7.07;;;;;;;23.13;47.31;99592.22;4315860;33;34047;-94
2023/05/20 07:06:37;;;;;;;11.65;6.97;;;;;;;22.86;47.11;99588.63;4314375;33;33528;-91
2023/05/20 07:09:05;;;;;;;10.05;6.30;;;;;;;22.58;46.22;99581.53;4315185;33;35130;-92
2023/05/20 07:11:32;;;;;;;11.73;6.55;;;;;;;22.67;47.58;99582.19;4322303;33;33583;-92
2023/05/20 07:14:00;;;;;;;10.73;7.12;;;;;;;22.73;47.65;99587.25;4316795;33;33906;-92
2023/05/20 07:16:28;;;;;;;13.60;7.53;;;;;;;23.01;47.59;99582.03;4303107;33;34854;-93
2023/05/20 07:18:56;;;;;;;10.77;6.20;;;;;;;23.37;45.99;99572.03;4301810;33;34075;-93
2023/05/20 07:21:24;;;;;;;10.38;7.32;;;;;;;23.81;45.65;99572.34;4317111;33;34447;-94
2023/05/20 07:23:53;;;;;;;12.80;6.97;;;;;;;23.63;44.02;99571.16;4316409;33;33714;-91
2023/05/20 07:26:21;;;;;;;11.95;6.47;;;;;;;23.20;45.65;99567.31;4327439;33;34976;-89
2023/05/20 07:28:48;;;;;;;10.30;6.60;;;;;;;22.95;46.21;99558.44;4305158;33;34227;-88
2023/05/20 07:31:16;;;;;;;11.30;6.50;;;;;;;22.81;46.22;99559.72;4328497;33;33645;-89
2023/05/20 07:33:43;;;;;;;10.95;6.07;;;;;;;22.36;46.44;99569.00;4295474;33;33743;-89
2023/05/20 07:36:11;;;;;;;14.20;7.22;;;;;;;22.33;46.81;99568.19;4297574;33;213641;-90
2023/05/20 07:38:40;;;;;;;10.18;7.10;;;;;;;22.51;46.78;99574.72;4317050;33;35458;-90
2023/05/20 07:41:20;;;;;;;10.45;7.07;;;;;;;22.61;47.92;99575.28;4317166;33;34552;-90
2023/05/20 07:43:47;;;;;;;9.65;6.80;;;;;;;22.87;47.21;99566.56;4316874;33;34369;-91
2023/05/20 07:46:15;;;;;;;10.20;7.15;;;;;;;23.12;47.19;99579.94;4315845;33;35462;-89
2023/05/20 07:48:46;;;;;;;11.02;7.07;;;;;;;22.95;46.64;99576.94;4303812;33;34364;-90
2023/05/20 07:51:14;;;;;;;10.43;6.53;;;;;;;22.56;46.66;99569.28;4315457;33;33468;-90
2023/05/20 07:53:42;;;;;;;11.15;7.07;;;;;;;22.94;47.45;99575.22;4303653;33;33209;-91
2023/05/20 07:56:10;;;;;;;11.68;6.87;;;;;;;22.65;47.47;99568.13;4316896;33;34304;-89
2023/05/20 07:58:41;;;;;;;12.27;6.37;;;;;;;22.39;48.15;99567.16;4317107;33;33937;-90
2023/05/20 08:01:10;;;;;;;11.05;7.12;;;;;;;22.59;47.92;99556.84;4303628;33;33726;-91
2023/05/20 08:03:38;;;;;;;13.25;7.18;;;;;;;22.63;48.11;99565.56;4316974;33;33975;-91
2023/05/20 08:06:10;;;;;;;10.30;6.20;;;;;;;22.74;47.58;99568.72;4303962;33;35193;-90
2023/05/20 08:08:40;;;;;;;11.12;6.90;;;;;;;22.83;47.33;99567.56;4316642;33;34267;-92
2023/05/20 08:11:08;;;;;;;9.77;7.15;;;;;;;23.12;46.01;99556.12;4316439;33;34059;-90
2023/05/20 08:13:36;;;;;;;10.00;6.32;;;;;;;22.89;46.25;99563.91;4316888;33;33635;-91
2023/05/20 08:16:05;;;;;;;13.20;7.15;;;;;;;22.42;46.22;99563.53;4317075;33;33747;-92
2023/05/20 08:18:35;;;;;;;11.15;8.10;;;;;;;22.00;48.79;99574.37;4315549;33;34931;-91
2023/05/20 08:21:05;;;;;;;11.75;7.00;;;;;;;21.76;48.09;99576.75;4303889;33;34657;-92
2023/05/20 08:23:33;;;;;;;11.85;7.45;;;;;;;22.09;48.83;99563.56;4316818;33;33924;-92
2023/05/20 08:26:05;;;;;;;9.68;6.70;;;;;;;22.26;48.76;99561.34;4292478;33;35064;-90
2023/05/20 08:28:38;;;;;;;14.13;7.45;;;;;;;22.40;48.01;99558.31;4317227;33;34898;-91
2023/05/20 08:31:06;;;;;;;10.02;6.85;;;;;;;22.41;47.04;99545.97;4315922;33;34042;-92
2023/05/20 08:33:35;;;;;;;9.65;6.97;;;;;;;22.25;47.64;99561.41;4303289;33;34006;-91
2023/05/20 08:36:02;;;;;;;11.15;7.07;;;;;;;22.17;47.98;99556.34;4316747;33;33631;-91
2023/05/20 08:38:30;;;;;;;12.18;7.15;;;;;;;22.86;47.91;99551.63;4303427;33;34082;-91
2023/05/20 08:40:58;;;;;;;14.02;8.20;;;;;;;22.49;46.96;99544.81;4316776;33;33743;-92
2023/05/20 08:43:27;;;;;;;15.68;7.22;;;;;;;22.67;47.20;99556.63;4317316;33;34564;-90
2023/05/20 08:45:55;;;;;;;11.57;6.72;;;;;;;22.98;46.20;99545.97;4316613;33;34725;-92
2023/05/20 08:48:24;;;;;;;11.75;7.20;;;;;;;23.19;46.95;99536.50;4316917;33;34187;-93
2023/05/20 08:50:52;;;;;;;11.20;7.57;;;;;;;23.72;45.71;99538.28;4316761;33;34528;-91
2023/05/20 08:53:21;;;;;;;10.68;7.03;;;;;;;23.99;45.28;99539.06;4303178;33;34102;-91
2023/05/20 08:55:59;;;;;;;10.10;6.97;;;;;;;23.37;46.06;99542.06;4303389;33;35069;-91
2023/05/20 08:58:29;;;;;;;11.10;7.20;;;;;;;23.87;45.79;99542.16;4303513;33;34276;-92
2023/05/20 09:01:00;;;;;;;12.15;7.43;;;;;;;24.49;44.94;99534.56;4316699;33;33594;-91
2023/05/20 09:03:28;;;;;;;12.50;6.30;;;;;;;24.20;45.12;99530.31;4303761;33;34339;-89
2023/05/20 09:06:03;;;;;;;11.10;6.82;;;;;;;24.65;44.06;99537.47;4316382;33;34059;-92
2023/05/20 09:08:32;;;;;;;11.43;7.10;;;;;;;23.75;44.00;99533.75;4303250;33;34088;-90
2023/05/20 09:10:59;;;;;;;11.07;7.22;;;;;;;23.41;44.98;99538.41;4316518;33;33766;-90
2023/05/20 09:13:29;;;;;;;13.15;7.30;;;;;;;23.40;43.95;99542.84;4316438;33;34117;-91
2023/05/20 09:15:59;;;;;;;10.98;6.65;;;;;;;23.62;43.53;99535.03;4316355;33;35077;-90
2023/05/20 09:18:28;;;;;;;10.75;6.93;;;;;;;23.55;44.63;99542.31;4316775;33;33939;-91
2023/05/20 09:20:55;;;;;;;12.55;6.80;;;;;;;23.68;44.26;99536.66;4316623;33;33598;-90
2023/05/20 09:23:28;;;;;;;10.93;7.12;;;;;;;23.88;44.13;99534.16;4315354;33;33845;-92
2023/05/20 09:26:01;;;;;;;11.77;7.22;;;;;;;23.89;43.78;99530.59;4316298;33;34000;-90
2023/05/20 09:28:28;;;;;;;14.90;6.78;;;;;;;23.81;44.02;99527.34;4303580;33;34898;-90
2023/05/20 09:31:00;;;;;;;12.13;8.32;;;;;;;23.99;43.60;99532.00;4316522;33;34556;-92
2023/05/20 09:33:28;;;;;;;14.15;6.95;;;;;;;24.55;43.56;99530.84;4303279;33;34634;-91
2023/05/20 09:36:04;;;;;;;11.77;7.70;;;;;;;24.26;42.63;99519.50;4316649;33;33889;-92
2023/05/20 09:38:36;;;;;;;10.77;6.80;;;;;;;24.41;43.38;99517.22;4302380;33;34937;-90
2023/05/20 09:41:14;;;;;;;11.73;6.90;;;;;;;24.13;43.53;99512.94;4316058;33;33736;-90
2023/05/20 09:43:41;;;;;;;12.80;7.93;;;;;;;24.75;43.95;99509.69;4315819;33;34074;-93
2023/05/20 09:46:10;;;;;;;12.02;7.47;;;;;;;24.51;44.21;99508.00;4316367;33;34925;-92
2023/05/20 09:48:38;;;;;;;13.62;7.47;;;;;;;24.36;44.26;99508.53;4316325;33;35129;-91
2023/05/20 09:51:06;;;;;;;11.18;7.72;;;;;;;24.80;45.50;99493.59;4314959;33;34572;-91
2023/05/20 09:53:34;;;;;;;13.85;7.82;;;;;;;25.46;44.83;99482.94;4316591;33;34062;-93
2023/05/20 09:56:02;;;;;;;13.20;8.18;;;;;;;26.01;43.52;99474.31;4316181;33;34382;-93
2023/05/20 09:58:32;;;;;;;10.60;7.07;;;;;;;25.68;40.45;99473.09;4314488;33;34083;-91
2023/05/20 10:01:00;;;;;;;10.55;7.60;;;;;;;26.27;41.32;99473.13;4322271;33;33696;-90
2023/05/20 10:03:28;;;;;;;11.48;7.18;;;;;;;25.87;40.87;99472.28;4302968;33;34028;-90
2023/05/20 10:06:33;;;;;;;12.90;7.50;;;;;;;26.57;39.53;99477.03;4302550;33;33508;-90
2023/05/20 10:09:26;;;;;;;14.55;6.68;;;;;;;26.52;40.72;99470.19;4314223;33;35044;-92
2023/05/20 10:12:15;;;;;;;10.27;7.35;;;;;;;26.61;38.58;99473.28;4314808;33;32668;-93
2023/05/20 10:14:58;;;;;;;12.70;6.82;;;;;;;26.81;37.34;99471.44;4315969;33;33841;-92
2023/05/20 10:17:44;;;;;;;12.30;7.47;;;;;;;26.83;40.25;99470.44;4314095;33;34335;-92
2023/05/20 10:20:12;;;;;;;11.15;7.45;;;;;;;26.54;40.72;99458.56;4319315;33;34947;-92
2023/05/20 10:22:39;;;;;;;11.07;6.75;;;;;;;26.29;36.99;99477.44;4302738;33;33570;-92
2023/05/20 10:25:11;;;;;;;10.80;7.05;;;;;;;26.30;39.97;99470.34;4319734;33;34770;-91
2023/05/20 10:27:44;;;;;;;11.30;7.60;;;;;;;26.47;37.42;99453.59;4311580;33;31924;-92
2023/05/20 10:30:16;;;;;;;10.43;6.93;;;;;;;26.40;37.86;99445.03;4305462;33;34956;-93
2023/05/20 10:32:51;;;;;;;11.23;6.90;;;;;;;25.86;37.52;99452.84;4309844;33;33830;-91
2023/05/20 10:35:25;;;;;;;11.90;7.23;;;;;;;25.65;37.46;99453.78;4288683;33;32854;-92
2023/05/20 10:37:54;;;;;;;10.98;6.97;;;;;;;25.75;39.31;99446.25;4303526;33;35111;-92
2023/05/20 10:40:22;;;;;;;10.45;6.65;;;;;;;26.25;39.41;99445.75;4313161;33;33740;-94
2023/05/20 10:42:49;;;;;;;12.48;7.20;;;;;;;26.32;37.44;99440.06;4312168;33;33094;-92
2023/05/20 10:45:28;;;;;;;12.48;6.35;;;;;;;26.23;37.94;99443.19;4301017;33;34477;-91
2023/05/20 10:47:56;;;;;;;10.98;7.37;;;;;;;26.98;38.40;99444.87;4286725;33;33340;-92
2023/05/20 10:50:33;;;;;;;12.27;7.03;;;;;;;26.81;38.09;99435.06;4294299;33;33527;-92
2023/05/20 10:53:10;;;;;;;11.77;6.97;;;;;;;26.85;37.19;99431.31;4290388;33;33748;-91
2023/05/20 10:55:50;;;;;;;12.90;7.03;;;;;;;26.74;36.18;99432.78;4290610;33;33988;-93
2023/05/20 10:58:20;;;;;;;12.70;6.40;;;;;;;26.72;35.77;99437.34;4291113;33;33880;-92
2023/05/20 11:00:53;;;;;;;9.10;6.00;;;;;;;27.04;36.07;99431.25;4302896;33;33985;-91
2023/05/20 11:03:21;;;;;;;11.68;6.80;;;;;;;26.78;34.50;99434.34;4314181;33;33056;-92
2023/05/20 11:05:50;;;;;;;12.68;6.87;;;;;;;26.89;34.11;99437.34;4308362;33;34623;-93
2023/05/20 11:08:17;;;;;;;10.55;7.20;;;;;;;27.35;33.82;99424.38;4302318;33;32956;-92
2023/05/20 11:10:56;;;;;;;13.82;7.07;;;;;;;26.87;32.94;99433.91;4303452;33;34803;-91
2023/05/20 11:13:24;;;;;;;11.12;6.75;;;;;;;26.50;33.08;99426.88;4315275;33;33657;-89
2023/05/20 11:15:53;;;;;;;12.02;7.07;;;;;;;26.42;33.24;99428.06;4313536;33;34877;-89
2023/05/20 11:18:20;;;;;;;10.65;6.32;;;;;;;26.57;32.99;99434.47;4313009;33;35014;-88
2023/05/20 11:20:48;;;;;;;10.38;6.07;;;;;;;26.46;32.86;99412.88;4312500;33;34966;-88
2023/05/20 11:23:15;;;;;;;10.88;6.22;;;;;;;26.92;32.81;99422.09;4312341;33;33795;-89
2023/05/20 11:25:43;;;;;;;10.60;6.12;;;;;;;26.90;34.22;99423.13;4311867;33;34805;-85
2023/05/20 11:28:14;;;;;;;12.60;6.95;;;;;;;26.80;32.36;99416.53;4312260;33;33956;-90
2023/05/20 11:30:42;;;;;;;16.20;7.18;;;;;;;26.40;32.21;99398.06;4319609;33;35084;-88
2023/05/20 11:33:14;;;;;;;9.52;6.32;;;;;;;26.60;32.96;99410.41;4315218;33;33592;-87
2023/05/20 11:35:50;;;;;;;9.77;6.70;;;;;;;26.30;33.17;99406.53;4306553;33;35328;-88